createdAt,value
2017-04-13T00:00:16.601Z,7.2
2017-04-13T00:01:26.340Z,7.2
2017-04-13T00:02:36.483Z,7.11
2017-04-13T00:03:46.602Z,7.2
2017-04-13T00:04:56.358Z,7.18
2017-04-13T00:06:06.946Z,7.06
2017-04-13T00:07:17.068Z,7.06
2017-04-13T00:08:26.800Z,7.13
2017-04-13T00:09:36.916Z,7.14
2017-04-13T00:10:46.651Z,7.11
2017-04-13T00:11:56.690Z,7.13
2017-04-13T00:13:06.449Z,7.13
2017-04-13T00:14:16.179Z,7.2
2017-04-13T00:15:25.972Z,7.24
2017-04-13T00:16:35.709Z,7.11
2017-04-13T00:17:46.146Z,7.21
2017-04-13T00:18:56.337Z,7.2
2017-04-13T00:20:06.088Z,7.21
2017-04-13T00:21:15.833Z,7.14
2017-04-13T00:22:24.962Z,7.11
2017-04-13T00:23:34.994Z,7.15
2017-04-13T00:24:45.074Z,7.17
2017-04-13T00:25:55.147Z,7.2
2017-04-13T00:27:04.586Z,7.11
2017-04-13T00:28:14.341Z,7.15
2017-04-13T00:29:24.456Z,7.2
2017-04-13T00:30:34.611Z,7.02
2017-04-13T00:31:44.343Z,7.13
2017-04-13T00:32:54.140Z,7.24
2017-04-13T00:34:03.884Z,7.14
2017-04-13T00:35:14.315Z,7.13
2017-04-13T00:36:43.543Z,7.14
2017-04-13T00:37:53.531Z,7.15
2017-04-13T00:39:03.685Z,7.18
2017-04-13T00:40:13.422Z,7.22
2017-04-13T00:41:23.375Z,7.24
2017-04-13T00:42:33.416Z,7.15
2017-04-13T00:43:43.377Z,7.2
2017-04-13T00:44:53.077Z,7.14
2017-04-13T00:46:03.021Z,7.15
2017-04-13T00:47:12.990Z,7.08
2017-04-13T00:48:22.943Z,7.11
2017-04-13T00:49:32.256Z,7.08
2017-04-13T00:50:41.885Z,7.08
2017-04-13T00:51:51.573Z,7.18
2017-04-13T00:53:01.377Z,7.21
2017-04-13T00:54:11.450Z,7.17
2017-04-13T00:55:21.213Z,7.11
2017-04-13T00:56:31.333Z,7.18
2017-04-13T00:57:41.552Z,7.2
2017-04-13T00:58:51.636Z,7.2
2017-04-13T01:00:01.697Z,7.11
2017-04-13T01:01:11.807Z,7.11
2017-04-13T01:02:21.671Z,7.21
2017-04-13T01:03:32.102Z,7.13
2017-04-13T01:04:42.181Z,7.13
2017-04-13T01:05:52.245Z,7.24
2017-04-13T01:07:02.440Z,7.17
2017-04-13T01:08:12.175Z,7.18
2017-04-13T01:09:22.622Z,7.22
2017-04-13T01:10:32.373Z,7.15
2017-04-13T01:11:42.114Z,7.2
2017-04-13T01:12:52.234Z,7.2
2017-04-13T01:14:01.971Z,7.26
2017-04-13T01:15:12.343Z,7.22
2017-04-13T01:16:22.707Z,7.17
2017-04-13T01:17:32.805Z,7.26
2017-04-13T01:18:41.869Z,7.21
2017-04-13T01:19:51.943Z,7.18
2017-04-13T01:21:01.712Z,7.28
2017-04-13T01:22:11.932Z,7.21
2017-04-13T01:23:21.343Z,7.28
2017-04-13T01:24:31.426Z,7.26
2017-04-13T01:25:41.507Z,7.29
2017-04-13T01:26:51.996Z,7.28
2017-04-13T01:28:02.062Z,7.22
2017-04-13T01:29:12.190Z,7.28
2017-04-13T01:30:21.993Z,7.18
2017-04-13T01:31:31.762Z,7.18
2017-04-13T01:32:42.192Z,7.18
2017-04-13T01:33:52.257Z,7.26
2017-04-13T01:35:02.328Z,7.2
2017-04-13T01:36:12.397Z,7.21
2017-04-13T01:37:22.490Z,7.2
2017-04-13T01:38:32.866Z,7.2
2017-04-13T01:39:43.043Z,7.14
2017-04-13T01:40:53.157Z,7.13
2017-04-13T01:42:02.960Z,7.17
2017-04-13T01:43:12.746Z,7.21
2017-04-13T01:44:23.155Z,7.14
2017-04-13T01:45:33.320Z,7.21
2017-04-13T01:46:43.448Z,7.2
2017-04-13T01:47:53.594Z,7.2
2017-04-13T01:49:03.445Z,7.21
2017-04-13T01:50:13.199Z,7.22
2017-04-13T01:51:22.954Z,7.2
2017-04-13T01:52:33.072Z,7.21
2017-04-13T01:53:42.895Z,7.24
2017-04-13T01:54:52.743Z,7.28
2017-04-13T01:56:03.144Z,7.22
2017-04-13T01:57:13.223Z,7.2
2017-04-13T01:58:22.963Z,7.18
2017-04-13T01:59:33.033Z,7.21
2017-04-13T02:00:43.091Z,7.1
2017-04-13T02:01:53.480Z,7.08
2017-04-13T02:03:03.626Z,7.11
2017-04-13T02:04:13.053Z,7.06
2017-04-13T02:05:23.167Z,7.02
2017-04-13T02:06:32.889Z,6.99
2017-04-13T02:07:42.940Z,7.03
2017-04-13T02:08:52.692Z,6.95
2017-04-13T02:10:02.769Z,6.99
2017-04-13T02:11:12.862Z,6.97
2017-04-13T02:12:22.602Z,6.92
2017-04-13T02:13:32.989Z,6.95
2017-04-13T02:14:43.218Z,7.02
2017-04-13T02:15:53.551Z,6.96
2017-04-13T02:17:03.657Z,6.97
2017-04-13T02:18:13.404Z,6.85
2017-04-13T02:19:23.773Z,6.96
2017-04-13T02:20:33.209Z,6.99
2017-04-13T02:21:43.293Z,6.96
2017-04-13T02:22:53.350Z,6.96
2017-04-13T02:24:03.520Z,7
2017-04-13T02:25:13.886Z,7.02
2017-04-13T02:26:24.001Z,6.95
2017-04-13T02:27:34.254Z,6.92
2017-04-13T02:28:43.988Z,7.06
2017-04-13T02:29:53.761Z,6.96
2017-04-13T02:31:03.887Z,6.99
2017-04-13T02:32:13.309Z,6.95
2017-04-13T02:33:23.041Z,6.97
2017-04-13T02:34:32.789Z,6.99
2017-04-13T02:35:42.845Z,6.97
2017-04-13T02:36:52.888Z,6.97
2017-04-13T02:38:02.962Z,6.95
2017-04-13T02:39:13.087Z,6.97
2017-04-13T02:40:23.146Z,6.87
2017-04-13T02:41:33.311Z,6.92
2017-04-13T02:42:43.346Z,6.93
2017-04-13T02:43:53.425Z,6.89
2017-04-13T02:45:03.482Z,6.93
2017-04-13T02:46:13.750Z,6.89
2017-04-13T02:47:23.885Z,6.9
2017-04-13T02:48:34.243Z,6.87
2017-04-13T02:49:44.310Z,6.79
2017-04-13T02:50:53.444Z,6.81
2017-04-13T02:52:03.306Z,6.85
2017-04-13T02:53:13.432Z,6.81
2017-04-13T02:54:23.528Z,6.77
2017-04-13T02:55:33.657Z,6.84
2017-04-13T02:56:43.737Z,6.74
2017-04-13T02:57:53.881Z,6.78
2017-04-13T02:59:03.977Z,6.78
2017-04-13T03:00:14.351Z,6.81
2017-04-13T03:01:24.134Z,6.63
2017-04-13T03:02:33.862Z,6.62
2017-04-13T03:03:43.934Z,6.62
2017-04-13T03:04:53.380Z,6.59
2017-04-13T03:06:03.422Z,6.59
2017-04-13T03:07:13.186Z,6.59
2017-04-13T03:08:22.961Z,6.56
2017-04-13T03:09:33.091Z,6.59
2017-04-13T03:10:43.170Z,6.63
2017-04-13T03:11:53.348Z,6.62
2017-04-13T03:13:03.178Z,6.63
2017-04-13T03:14:13.248Z,6.54
2017-04-13T03:15:22.988Z,6.49
2017-04-13T03:16:33.137Z,6.53
2017-04-13T03:17:43.213Z,6.49
2017-04-13T03:18:53.379Z,6.52
2017-04-13T03:20:02.791Z,6.54
2017-04-13T03:21:12.540Z,6.54
2017-04-13T03:22:22.622Z,6.53
2017-04-13T03:23:33.017Z,6.53
2017-04-13T03:24:42.811Z,6.46
2017-04-13T03:25:52.726Z,6.42
2017-04-13T03:27:02.135Z,6.38
2017-04-13T03:28:11.887Z,6.46
2017-04-13T03:29:22.386Z,6.45
2017-04-13T03:30:32.458Z,6.44
2017-04-13T03:31:42.524Z,6.44
2017-04-13T03:32:51.932Z,6.31
2017-04-13T03:34:02.011Z,6.35
2017-04-13T03:35:12.428Z,6.31
2017-04-13T03:36:21.216Z,6.34
2017-04-13T03:37:31.118Z,6.38
2017-04-13T03:38:41.281Z,6.28
2017-04-13T03:39:51.008Z,6.34
2017-04-13T03:41:01.372Z,6.36
2017-04-13T03:42:11.168Z,6.26
2017-04-13T03:43:21.043Z,6.21
2017-04-13T03:44:30.497Z,6.16
2017-04-13T03:45:40.694Z,6.14
2017-04-13T03:46:50.724Z,6.14
2017-04-13T03:48:00.559Z,6.19
2017-04-13T03:49:10.342Z,6.21
2017-04-13T03:50:20.566Z,6.16
2017-04-13T03:51:30.730Z,6.16
2017-04-13T03:52:41.186Z,6.16
2017-04-13T03:53:51.274Z,6.05
2017-04-13T03:55:01.340Z,6.14
2017-04-13T03:56:11.138Z,6.16
2017-04-13T03:57:20.883Z,6.16
2017-04-13T03:58:30.910Z,6.16
2017-04-13T03:59:41.115Z,6.14
2017-04-13T04:00:51.215Z,6.16
2017-04-13T04:02:01.325Z,6.14
2017-04-13T04:03:11.419Z,6.17
2017-04-13T04:04:21.544Z,6.16
2017-04-13T04:05:31.321Z,6.19
2017-04-13T04:06:41.418Z,6.11
2017-04-13T04:07:51.521Z,6.17
2017-04-13T04:09:01.583Z,6.16
2017-04-13T04:10:11.682Z,6.16
2017-04-13T04:11:21.416Z,6.2
2017-04-13T04:12:31.495Z,6.19
2017-04-13T04:13:41.563Z,6.2
2017-04-13T04:14:51.711Z,6.2
2017-04-13T04:16:01.790Z,6.17
2017-04-13T04:17:11.940Z,6.16
2017-04-13T04:18:22.006Z,6.16
2017-04-13T04:19:32.073Z,6.21
2017-04-13T04:20:42.194Z,6.11
2017-04-13T04:21:52.576Z,6.17
2017-04-13T04:23:02.059Z,6.17
2017-04-13T04:24:12.121Z,6.17
2017-04-13T04:25:21.548Z,6.14
2017-04-13T04:26:31.673Z,6.17
2017-04-13T04:27:41.805Z,6.2
2017-04-13T04:28:51.533Z,6.17
2017-04-13T04:30:01.271Z,6.14
2017-04-13T04:31:11.087Z,6.03
2017-04-13T04:32:20.838Z,6.05
2017-04-13T04:33:31.130Z,6.06
2017-04-13T04:34:41.235Z,6.11
2017-04-13T04:35:50.736Z,5.93
2017-04-13T04:37:00.470Z,6.01
2017-04-13T04:38:10.642Z,5.96
2017-04-13T04:39:21.004Z,6.01
2017-04-13T04:40:30.406Z,5.94
2017-04-13T04:41:40.534Z,5.96
2017-04-13T04:42:49.933Z,6.01
2017-04-13T04:44:00.100Z,5.93
2017-04-13T04:45:10.196Z,6.05
2017-04-13T04:46:20.398Z,5.96
2017-04-13T04:47:30.660Z,5.94
2017-04-13T04:48:40.758Z,5.9
2017-04-13T04:49:50.927Z,5.9
2017-04-13T04:51:01.064Z,5.93
2017-04-13T04:52:11.235Z,5.88
2017-04-13T04:53:20.996Z,5.96
2017-04-13T04:54:31.130Z,5.9
2017-04-13T04:55:41.256Z,5.9
2017-04-13T04:56:51.326Z,5.9
2017-04-13T04:58:01.405Z,5.86
2017-04-13T04:59:11.190Z,5.86
2017-04-13T05:00:20.929Z,5.9
2017-04-13T05:01:31.059Z,5.9
2017-04-13T05:02:41.138Z,5.83
2017-04-13T05:03:51.295Z,5.9
2017-04-13T05:05:01.373Z,5.91
2017-04-13T05:06:11.177Z,5.94
2017-04-13T05:07:21.248Z,5.98
2017-04-13T05:08:31.284Z,5.9
2017-04-13T05:09:41.023Z,5.84
2017-04-13T05:10:51.102Z,5.93
2017-04-13T05:12:01.189Z,5.9
2017-04-13T05:13:11.253Z,5.88
2017-04-13T05:14:21.668Z,5.88
2017-04-13T05:15:31.865Z,5.93
2017-04-13T05:16:41.620Z,5.98
2017-04-13T05:17:51.481Z,5.98
2017-04-13T05:19:01.213Z,6.03
2017-04-13T05:20:11.594Z,5.96
2017-04-13T05:21:21.024Z,5.94
2017-04-13T05:22:30.603Z,6.08
2017-04-13T05:23:40.737Z,6.05
2017-04-13T05:24:50.467Z,6.06
2017-04-13T05:26:00.881Z,6.09
2017-04-13T05:27:10.296Z,6.23
2017-04-13T05:28:20.137Z,6.2
2017-04-13T05:29:30.226Z,6.11
2017-04-13T05:30:40.057Z,6.2
2017-04-13T05:31:50.442Z,6.21
2017-04-13T05:33:00.182Z,6.3
2017-04-13T05:34:10.252Z,6.31
2017-04-13T05:35:20.396Z,6.45
2017-04-13T05:36:30.514Z,6.46
2017-04-13T05:37:40.573Z,6.59
2017-04-13T05:38:50.344Z,6.56
2017-04-13T05:40:00.432Z,6.54
2017-04-13T05:41:10.174Z,6.6
2017-04-13T05:42:20.313Z,6.62
2017-04-13T05:43:30.453Z,6.62
2017-04-13T05:44:40.183Z,6.66
2017-04-13T05:45:50.250Z,6.69
2017-04-13T05:47:00.038Z,6.82
2017-04-13T05:48:10.177Z,6.82
2017-04-13T05:49:20.585Z,6.81
2017-04-13T05:50:30.658Z,6.79
2017-04-13T05:51:40.771Z,6.81
2017-04-13T05:52:50.883Z,6.84
2017-04-13T05:54:00.616Z,6.85
2017-04-13T05:55:10.031Z,6.9
2017-04-13T05:56:20.096Z,6.87
2017-04-13T05:57:29.516Z,6.93
2017-04-13T05:58:39.249Z,6.92
2017-04-13T05:59:48.990Z,6.99
2017-04-13T06:00:59.364Z,6.92
2017-04-13T06:02:09.124Z,6.95
2017-04-13T06:03:19.203Z,6.99
2017-04-13T06:04:29.294Z,6.95
2017-04-13T06:05:39.425Z,6.89
2017-04-13T06:06:49.462Z,7.02
2017-04-13T06:07:59.533Z,6.96
2017-04-13T06:09:09.711Z,7.02
2017-04-13T06:10:19.786Z,6.9
2017-04-13T06:11:29.912Z,6.92
2017-04-13T06:12:40.394Z,7.03
2017-04-13T06:13:50.524Z,6.89
2017-04-13T06:14:59.970Z,7.06
2017-04-13T06:16:10.134Z,7.05
2017-04-13T06:17:19.559Z,6.97
2017-04-13T06:18:30.222Z,6.95
2017-04-13T06:19:40.307Z,7.1
2017-04-13T06:20:50.368Z,6.96
2017-04-13T06:22:00.433Z,6.96
2017-04-13T06:23:10.557Z,6.96
2017-04-13T06:24:21.165Z,7.05
2017-04-13T06:25:31.585Z,7
2017-04-13T06:26:41.710Z,7.1
2017-04-13T06:27:51.786Z,7.1
2017-04-13T06:29:01.850Z,7.15
2017-04-13T06:30:12.218Z,7.18
2017-04-13T06:31:21.668Z,7.17
2017-04-13T06:32:31.507Z,7.21
2017-04-13T06:33:40.959Z,7.2
2017-04-13T06:34:50.693Z,7.26
2017-04-13T06:36:00.738Z,7.28
2017-04-13T06:37:10.957Z,7.33
2017-04-13T06:38:21.072Z,7.31
2017-04-13T06:39:31.218Z,7.22
2017-04-13T06:40:41.338Z,7.34
2017-04-13T06:41:51.798Z,7.34
2017-04-13T06:43:01.985Z,7.34
2017-04-13T06:44:12.063Z,7.33
2017-04-13T06:45:22.135Z,7.41
2017-04-13T06:46:31.886Z,7.41
2017-04-13T06:47:41.964Z,7.28
2017-04-13T06:48:52.087Z,7.31
2017-04-13T06:50:02.174Z,7.33
2017-04-13T06:51:12.243Z,7.21
2017-04-13T06:52:22.458Z,7.29
2017-04-13T06:53:32.189Z,7.33
2017-04-13T06:54:41.661Z,7.4
2017-04-13T06:55:51.502Z,7.36
2017-04-13T06:57:01.291Z,7.48
2017-04-13T06:58:11.401Z,7.4
2017-04-13T06:59:21.493Z,7.36
2017-04-13T07:00:31.569Z,7.39
2017-04-13T07:01:41.335Z,7.43
2017-04-13T07:02:51.409Z,7.44
2017-04-13T07:04:01.185Z,7.49
2017-04-13T07:05:10.978Z,7.56
2017-04-13T07:06:21.092Z,7.66
2017-04-13T07:07:31.209Z,7.62
2017-04-13T07:08:41.279Z,7.64
2017-04-13T07:09:51.359Z,7.67
2017-04-13T07:11:01.734Z,7.64
2017-04-13T07:12:11.911Z,7.61
2017-04-13T07:13:21.994Z,7.7
2017-04-13T07:14:32.112Z,7.64
2017-04-13T07:15:42.233Z,7.73
2017-04-13T07:16:52.754Z,7.7
2017-04-13T07:18:02.566Z,7.69
2017-04-13T07:19:12.341Z,7.73
2017-04-13T07:20:22.425Z,7.73
2017-04-13T07:21:32.507Z,7.74
2017-04-13T07:22:42.892Z,7.61
2017-04-13T07:23:52.735Z,7.67
2017-04-13T07:25:02.471Z,7.59
2017-04-13T07:26:12.214Z,7.56
2017-04-13T07:27:22.344Z,7.56
2017-04-13T07:28:32.740Z,7.48
2017-04-13T07:29:42.819Z,7.44
2017-04-13T07:30:52.943Z,7.44
2017-04-13T07:32:03.059Z,7.39
2017-04-13T07:33:13.128Z,7.41
2017-04-13T07:34:22.848Z,7.39
2017-04-13T07:35:33.015Z,7.33
2017-04-13T07:36:43.168Z,7.28
2017-04-13T07:37:53.292Z,7.31
2017-04-13T07:39:03.381Z,7.26
2017-04-13T07:40:13.778Z,7.37
2017-04-13T07:41:23.540Z,7.36
2017-04-13T07:42:33.650Z,7.34
2017-04-13T07:43:43.069Z,7.31
2017-04-13T07:44:53.158Z,7.29
2017-04-13T07:46:03.659Z,7.36
2017-04-13T07:47:13.917Z,7.34
2017-04-13T07:48:23.984Z,7.28
2017-04-13T07:49:34.037Z,7.31
2017-04-13T07:50:44.116Z,7.31
2017-04-13T07:51:54.166Z,7.31
2017-04-13T07:53:03.632Z,7.34
2017-04-13T07:54:13.735Z,7.37
2017-04-13T07:55:23.651Z,7.33
2017-04-13T07:56:33.167Z,7.39
2017-04-13T07:57:43.473Z,7.31
2017-04-13T07:58:53.551Z,7.29
2017-04-13T08:00:03.634Z,7.28
2017-04-13T08:01:13.408Z,7.34
2017-04-13T08:02:23.351Z,7.33
2017-04-13T08:03:33.769Z,7.43
2017-04-13T08:04:43.840Z,7.48
2017-04-13T08:05:53.585Z,7.54
2017-04-13T08:07:03.666Z,7.56
2017-04-13T08:08:13.829Z,7.61
2017-04-13T08:09:23.538Z,7.62
2017-04-13T08:10:33.369Z,7.74
2017-04-13T08:11:43.160Z,7.74
2017-04-13T08:12:53.228Z,7.79
2017-04-13T08:14:03.350Z,7.76
2017-04-13T08:15:13.720Z,7.79
2017-04-13T08:16:23.468Z,7.88
2017-04-13T08:17:32.879Z,7.77
2017-04-13T08:18:42.671Z,7.82
2017-04-13T08:19:52.805Z,7.85
2017-04-13T08:21:02.975Z,7.97
2017-04-13T08:22:13.091Z,7.91
2017-04-13T08:23:22.835Z,8.05
2017-04-13T08:24:33.100Z,8.07
2017-04-13T08:25:43.298Z,8.13
2017-04-13T08:26:53.345Z,8.13
2017-04-13T08:28:03.481Z,8.32
2017-04-13T08:29:13.045Z,8.28
2017-04-13T08:30:22.793Z,8.28
2017-04-13T08:31:32.633Z,8.35
2017-04-13T08:32:43.007Z,8.34
2017-04-13T08:33:52.748Z,8.4
2017-04-13T08:35:02.901Z,8.48
2017-04-13T08:36:13.181Z,8.55
2017-04-13T08:37:23.363Z,9
2017-04-13T08:38:34.606Z,9.09
2017-04-13T08:39:45.409Z,9.19
2017-04-13T08:40:56.231Z,9.35
2017-04-13T08:42:06.953Z,9.27
2017-04-13T08:43:18.645Z,9.27
2017-04-13T08:44:30.325Z,9.26
2017-04-13T08:45:40.713Z,9.19
2017-04-13T08:46:51.556Z,9.15
2017-04-13T08:48:03.347Z,9.25
2017-04-13T08:49:14.251Z,9.42
2017-04-13T08:50:24.948Z,9.53
2017-04-13T08:51:35.369Z,10.24
2017-04-13T08:52:45.746Z,10.59
2017-04-13T08:53:56.007Z,10.85
2017-04-13T08:55:06.946Z,11.12
2017-04-13T08:56:18.078Z,11.42
2017-04-13T08:57:28.480Z,11.35
2017-04-13T08:58:39.258Z,11.38
2017-04-13T08:59:49.965Z,11.38
2017-04-13T09:01:00.955Z,11.74
2017-04-13T09:02:11.764Z,12.47
2017-04-13T09:03:22.147Z,13.36
2017-04-13T09:04:32.210Z,14.09
2017-04-13T09:05:42.580Z,14.24
2017-04-13T09:06:53.009Z,14.72
2017-04-13T09:08:03.815Z,15.29
2017-04-13T09:09:14.244Z,15.51
2017-04-13T09:10:25.674Z,15.46
2017-04-13T09:11:36.461Z,15.03
2017-04-13T09:12:47.802Z,14.56
2017-04-13T09:13:58.897Z,14.1
2017-04-13T09:15:09.622Z,13.59
2017-04-13T09:16:20.375Z,13.3
2017-04-13T09:17:31.097Z,12.8
2017-04-13T09:18:41.532Z,12.37
2017-04-13T09:19:53.284Z,12.13
2017-04-13T09:21:03.668Z,11.74
2017-04-13T09:22:14.040Z,11.43
2017-04-13T09:23:24.812Z,11.16
2017-04-13T09:24:35.212Z,10.88
2017-04-13T09:25:47.219Z,10.72
2017-04-13T09:26:57.942Z,10.47
2017-04-13T09:28:08.657Z,10.3
2017-04-13T09:29:19.425Z,10.29
2017-04-13T09:30:29.823Z,10.15
2017-04-13T09:31:40.894Z,10.24
2017-04-13T09:32:51.387Z,10.18
2017-04-13T09:34:02.179Z,10.21
2017-04-13T09:35:12.784Z,10.26
2017-04-13T09:36:23.544Z,10.27
2017-04-13T09:37:34.554Z,10.34
2017-04-13T09:38:44.600Z,10.33
2017-04-13T09:39:55.454Z,10.3
2017-04-13T09:41:05.924Z,10.32
2017-04-13T09:42:16.352Z,10.43
2017-04-13T09:43:26.705Z,10.63
2017-04-13T09:44:37.145Z,10.67
2017-04-13T09:45:47.848Z,10.77
2017-04-13T09:46:59.231Z,11.43
2017-04-13T09:48:09.934Z,12.04
2017-04-13T09:49:52.764Z,12.62
2017-04-13T09:51:03.472Z,12.82
2017-04-13T09:52:15.135Z,13.06
2017-04-13T09:53:25.846Z,13.45
2017-04-13T09:54:36.620Z,13.49
2017-04-13T09:55:46.994Z,14.09
2017-04-13T09:56:57.830Z,14.07
2017-04-13T09:58:08.671Z,13.96
2017-04-13T09:59:19.394Z,13.82
2017-04-13T10:00:30.481Z,13.48
2017-04-13T10:01:42.166Z,13.3
2017-04-13T10:02:53.021Z,13.55
2017-04-13T10:04:03.848Z,13.58
2017-04-13T10:05:15.499Z,13.73
2017-04-13T10:06:26.499Z,14.11
2017-04-13T10:07:37.338Z,14.14
2017-04-13T10:08:48.153Z,14.16
2017-04-13T10:09:58.859Z,14.09
2017-04-13T10:11:08.906Z,14.14
2017-04-13T10:12:19.642Z,13.96
2017-04-13T10:13:30.071Z,13.66
2017-04-13T10:14:40.886Z,13.44
2017-04-13T10:15:52.616Z,13.18
2017-04-13T10:17:03.169Z,12.97
2017-04-13T10:18:14.186Z,12.66
2017-04-13T10:19:24.619Z,12.7
2017-04-13T10:20:35.359Z,12.6
2017-04-13T10:21:46.152Z,12.6
2017-04-13T10:22:56.780Z,12.92
2017-04-13T10:24:08.801Z,13.44
2017-04-13T10:25:19.177Z,13.56
2017-04-13T10:26:29.891Z,13.96
2017-04-13T10:27:40.664Z,14.26
2017-04-13T10:28:50.727Z,14.65
2017-04-13T10:30:01.520Z,14.96
2017-04-13T10:31:12.346Z,14.99
2017-04-13T10:32:22.735Z,14.96
2017-04-13T10:33:33.592Z,14.78
2017-04-13T10:34:44.332Z,14.54
2017-04-13T10:35:55.130Z,14.22
2017-04-13T10:37:04.909Z,13.91
2017-04-13T10:38:15.665Z,13.69
2017-04-13T10:39:26.414Z,13.33
2017-04-13T10:40:36.837Z,13.13
2017-04-13T10:41:48.797Z,12.78
2017-04-13T10:42:59.533Z,12.41
2017-04-13T10:44:09.929Z,12.15
2017-04-13T10:45:21.261Z,12.04
2017-04-13T10:46:31.967Z,11.72
2017-04-13T10:47:42.594Z,11.66
2017-04-13T10:48:53.367Z,11.57
2017-04-13T10:50:04.125Z,11.69
2017-04-13T10:51:15.786Z,11.76
2017-04-13T10:52:27.539Z,11.79
2017-04-13T10:53:37.891Z,12.27
2017-04-13T10:54:48.603Z,12.85
2017-04-13T10:55:58.987Z,13.41
2017-04-13T10:57:09.410Z,13.81
2017-04-13T10:58:19.820Z,14.1
2017-04-13T10:59:30.854Z,14.51
2017-04-13T11:00:41.290Z,14.65
2017-04-13T11:01:52.068Z,14.91
2017-04-13T11:03:02.842Z,14.84
2017-04-13T11:04:13.258Z,14.72
2017-04-13T11:05:23.916Z,14.54
2017-04-13T11:06:34.350Z,14.19
2017-04-13T11:07:45.112Z,13.96
2017-04-13T11:08:56.775Z,13.89
2017-04-13T11:10:06.975Z,13.77
2017-04-13T11:11:17.992Z,13.58
2017-04-13T11:12:29.702Z,13.58
2017-04-13T11:13:40.092Z,13.81
2017-04-13T11:14:50.915Z,14
2017-04-13T11:16:01.669Z,14.03
2017-04-13T11:17:12.657Z,14.02
2017-04-13T11:18:23.364Z,14.14
2017-04-13T11:19:33.733Z,14.03
2017-04-13T11:20:44.503Z,13.91
2017-04-13T11:21:56.297Z,13.88
2017-04-13T11:23:07.445Z,13.73
2017-04-13T11:24:18.216Z,13.67
2017-04-13T11:25:29.041Z,13.48
2017-04-13T11:26:39.422Z,13.41
2017-04-13T11:27:50.180Z,13.34
2017-04-13T11:29:00.963Z,13.19
2017-04-13T11:30:11.735Z,13.09
2017-04-13T11:31:22.475Z,12.85
2017-04-13T11:32:33.237Z,12.6
2017-04-13T11:33:43.741Z,12.45
2017-04-13T11:34:54.074Z,12.41
2017-04-13T11:36:03.799Z,12.24
2017-04-13T11:37:13.866Z,12.11
2017-04-13T11:38:23.965Z,12.09
2017-04-13T11:39:34.724Z,11.89
2017-04-13T11:40:46.478Z,11.79
2017-04-13T11:41:57.182Z,11.66
2017-04-13T11:43:07.567Z,11.62
2017-04-13T11:44:17.956Z,11.48
2017-04-13T11:45:28.716Z,11.86
2017-04-13T11:46:39.436Z,11.91
2017-04-13T11:47:50.854Z,12.11
2017-04-13T11:49:01.605Z,12.19
2017-04-13T11:50:12.988Z,12.16
2017-04-13T11:51:23.692Z,12.17
2017-04-13T11:52:34.534Z,12.22
2017-04-13T11:53:45.259Z,12.11
2017-04-13T11:54:56.609Z,12.22
2017-04-13T11:56:07.404Z,12.2
2017-04-13T11:57:17.779Z,12.24
2017-04-13T11:58:28.798Z,12.23
2017-04-13T11:59:39.197Z,12.22
2017-04-13T12:00:50.007Z,12.17
2017-04-13T12:02:00.403Z,12.17
2017-04-13T12:03:11.111Z,12.07
2017-04-13T12:04:22.185Z,11.99
2017-04-13T12:05:33.001Z,11.98
2017-04-13T12:06:43.721Z,11.98
2017-04-13T12:07:54.501Z,11.89
2017-04-13T12:09:05.268Z,11.77
2017-04-13T12:10:17.242Z,11.61
2017-04-13T12:11:27.830Z,11.61
2017-04-13T12:12:38.604Z,11.4
2017-04-13T12:13:48.689Z,11.39
2017-04-13T12:14:58.425Z,11.28
2017-04-13T12:16:08.583Z,11.15
2017-04-13T12:17:18.715Z,11.09
2017-04-13T12:18:28.810Z,11.03
2017-04-13T12:19:38.952Z,11.06
2017-04-13T12:20:48.405Z,11
2017-04-13T12:21:58.797Z,10.92
2017-04-13T12:23:08.564Z,10.88
2017-04-13T12:24:18.334Z,10.87
2017-04-13T12:25:28.417Z,10.9
2017-04-13T12:26:38.160Z,10.8
2017-04-13T12:27:47.547Z,10.83
2017-04-13T12:28:57.675Z,10.79
2017-04-13T12:30:07.755Z,10.79
2017-04-13T12:31:17.511Z,10.8
2017-04-13T12:32:27.313Z,10.84
2017-04-13T12:33:37.746Z,10.84
2017-04-13T12:34:47.949Z,10.84
2017-04-13T12:35:57.799Z,10.85
2017-04-13T12:37:07.548Z,10.88
2017-04-13T12:38:17.766Z,10.91
2017-04-13T12:39:28.184Z,10.92
2017-04-13T12:40:37.951Z,11
2017-04-13T12:41:48.023Z,10.97
2017-04-13T12:42:58.245Z,11.06
2017-04-13T12:44:07.987Z,11.05
2017-04-13T12:45:18.365Z,11.08
2017-04-13T12:46:28.169Z,11.02
2017-04-13T12:47:38.330Z,11.09
2017-04-13T12:48:48.064Z,11.16
2017-04-13T12:49:57.496Z,11.25
2017-04-13T12:51:07.605Z,11.42
2017-04-13T12:52:18.148Z,11.42
2017-04-13T12:53:29.056Z,11.68
2017-04-13T12:54:39.534Z,11.94
2017-04-13T12:55:50.001Z,12.04
2017-04-13T12:57:01.104Z,12.24
2017-04-13T12:58:11.565Z,12.39
2017-04-13T12:59:22.314Z,12.38
2017-04-13T13:00:34.086Z,12.37
2017-04-13T13:01:45.790Z,12.48
2017-04-13T13:02:56.174Z,12.47
2017-04-13T13:04:06.682Z,12.53
2017-04-13T13:05:17.452Z,12.59
2017-04-13T13:06:28.323Z,12.66
2017-04-13T13:07:38.700Z,12.53
2017-04-13T13:08:49.719Z,12.44
2017-04-13T13:10:00.553Z,12.44
2017-04-13T13:11:11.310Z,12.27
2017-04-13T13:12:21.403Z,12.24
2017-04-13T13:13:31.469Z,12.22
2017-04-13T13:14:42.159Z,12.27
2017-04-13T13:15:53.054Z,12.35
2017-04-13T13:17:03.503Z,12.42
2017-04-13T13:18:14.310Z,12.39
2017-04-13T13:19:25.013Z,12.47
2017-04-13T13:20:35.775Z,12.59
2017-04-13T13:21:46.486Z,12.57
2017-04-13T13:22:56.879Z,12.55
2017-04-13T13:24:07.614Z,12.48
2017-04-13T13:25:18.378Z,12.52
2017-04-13T13:26:29.128Z,12.52
2017-04-13T13:27:39.890Z,12.57
2017-04-13T13:28:50.787Z,12.56
2017-04-13T13:30:01.585Z,12.57
2017-04-13T13:31:11.627Z,12.6
2017-04-13T13:32:22.342Z,12.77
2017-04-13T13:33:33.344Z,12.8
2017-04-13T13:34:43.773Z,12.66
2017-04-13T13:35:54.883Z,12.8
2017-04-13T13:37:05.272Z,12.75
2017-04-13T13:38:15.683Z,12.81
2017-04-13T13:39:27.027Z,12.84
2017-04-13T13:40:38.753Z,12.88
2017-04-13T13:41:48.726Z,12.74
2017-04-13T13:42:59.464Z,12.63
2017-04-13T13:44:10.528Z,12.66
2017-04-13T13:45:20.943Z,12.64
2017-04-13T13:46:31.770Z,12.55
2017-04-13T13:47:41.824Z,12.55
2017-04-13T13:48:51.883Z,12.48
2017-04-13T13:50:02.383Z,12.35
2017-04-13T13:51:12.813Z,12.39
2017-04-13T13:52:23.215Z,12.23
2017-04-13T13:53:33.947Z,12.19
2017-04-13T13:54:44.338Z,12.17
2017-04-13T13:55:55.410Z,12.07
2017-04-13T13:57:05.832Z,11.91
2017-04-13T13:58:16.287Z,11.87
2017-04-13T13:59:27.161Z,11.87
2017-04-13T14:00:37.930Z,11.84
2017-04-13T14:01:49.095Z,11.91
2017-04-13T14:02:59.820Z,11.95
2017-04-13T14:04:10.540Z,12.04
2017-04-13T14:05:21.265Z,12.09
2017-04-13T14:06:32.937Z,12.15
2017-04-13T14:07:43.227Z,12.24
2017-04-13T14:08:54.067Z,12.26
2017-04-13T14:10:05.749Z,12.31
2017-04-13T14:11:16.168Z,12.22
2017-04-13T14:12:26.933Z,12.24
2017-04-13T14:13:37.285Z,12.15
2017-04-13T14:14:47.665Z,12.26
2017-04-13T14:15:58.376Z,12.11
2017-04-13T14:17:09.093Z,12.27
2017-04-13T14:18:19.815Z,12.31
2017-04-13T14:19:30.215Z,12.27
2017-04-13T14:20:41.212Z,12.26
2017-04-13T14:21:51.647Z,12.24
2017-04-13T14:23:02.366Z,12.27
2017-04-13T14:24:13.198Z,12.24
2017-04-13T14:25:23.927Z,12.24
2017-04-13T14:26:34.355Z,12.24
2017-04-13T14:27:45.148Z,12.15
2017-04-13T14:28:56.040Z,12.13
2017-04-13T14:30:06.430Z,12.17
2017-04-13T14:31:17.511Z,12.19
2017-04-13T14:32:27.954Z,12.24
2017-04-13T14:33:38.674Z,12.27
2017-04-13T14:34:49.086Z,12.31
2017-04-13T14:35:59.846Z,12.22
2017-04-13T14:37:10.554Z,12.16
2017-04-13T14:38:21.427Z,12.17
2017-04-13T14:39:31.844Z,12.2
2017-04-13T14:40:43.548Z,12.19
2017-04-13T14:41:54.284Z,12.2
2017-04-13T14:43:05.846Z,12.16
2017-04-13T14:44:16.623Z,12.26
2017-04-13T14:45:27.362Z,12.26
2017-04-13T14:46:38.117Z,12.26
2017-04-13T14:47:48.884Z,12.23
2017-04-13T14:49:00.961Z,12.24
2017-04-13T14:50:11.717Z,12.17
2017-04-13T14:51:22.547Z,12.23
2017-04-13T14:52:33.324Z,12.26
2017-04-13T14:53:44.041Z,12.23
2017-04-13T14:54:54.884Z,12.05
2017-04-13T14:56:06.469Z,12.09
2017-04-13T14:57:17.857Z,12.08
2017-04-13T14:58:28.720Z,11.95
2017-04-13T14:59:39.135Z,11.89
2017-04-13T15:00:49.806Z,11.87
2017-04-13T15:02:00.124Z,11.89
2017-04-13T15:03:10.911Z,11.94
2017-04-13T15:04:21.290Z,11.87
2017-04-13T15:05:31.682Z,11.74
2017-04-13T15:06:42.479Z,11.77
2017-04-13T15:07:52.868Z,11.69
2017-04-13T15:09:04.261Z,11.64
2017-04-13T15:10:14.986Z,11.61
2017-04-13T15:11:25.379Z,11.59
2017-04-13T15:12:36.477Z,11.5
2017-04-13T15:13:47.265Z,11.43
2017-04-13T15:14:57.660Z,11.49
2017-04-13T15:16:08.379Z,11.5
2017-04-13T15:17:19.166Z,11.42
2017-04-13T15:18:29.517Z,11.48
2017-04-13T15:19:40.307Z,11.45
2017-04-13T15:20:51.112Z,11.43
2017-04-13T15:22:02.779Z,11.42
2017-04-13T15:23:12.875Z,11.33
2017-04-13T15:24:23.307Z,11.31
2017-04-13T15:25:33.447Z,11.34
2017-04-13T15:26:43.556Z,11.15